Time;durP1;ratioP1;P1;durP2;ratioP2;P2;SDS_P1;SDS_P2;PMS_P1;PMS_P2;Temp;Humidity;BMP_temperature;BMP_pressure;BME280_temperature;BME280_humidity;BME280_pressure;Samples;Min_cycle;Max_cycle;Signal;HPM_P1;HPM_P2
2023/10/15 00:01:31;;;;;;;0.10;0.10;;;;;;;5.54;91.56;101125.56;4935671;29;20122;-75
2023/10/15 00:03:57;;;;;;;0.00;0.00;;;;;;;5.51;91.46;101137.66;4924766;29;20027;-75
2023/10/15 00:06:22;;;;;;;0.00;0.00;;;;;;;5.50;91.11;101133.28;4942607;28;20057;-75
2023/10/15 00:08:48;;;;;;;0.10;0.10;;;;;;;5.52;91.14;101135.75;4931250;28;20035;-76
2023/10/15 00:11:17;;;;;;;0.10;0.10;;;;;;;5.49;92.19;101128.06;4935191;29;20055;-75
2023/10/15 00:13:43;;;;;;;0.00;0.00;;;;;;;5.41;91.58;101127.25;4929525;28;20723;-74
2023/10/15 00:16:09;;;;;;;0.00;0.00;;;;;;;5.47;92.17;101136.41;4915045;29;20034;-75
2023/10/15 00:18:36;;;;;;;0.00;0.00;;;;;;;5.46;92.36;101137.50;4914411;29;20439;-75
2023/10/15 00:21:11;;;;;;;0.10;0.10;;;;;;;5.41;92.16;101138.09;4928080;28;20038;-75
2023/10/15 00:23:43;;;;;;;0.00;0.00;;;;;;;5.41;91.42;101143.53;4930578;29;20031;-75
2023/10/15 00:26:13;;;;;;;0.00;0.00;;;;;;;5.40;91.65;101135.59;4931948;28;20038;-76
2023/10/15 00:28:38;;;;;;;0.00;0.00;;;;;;;5.35;92.27;101138.97;4941398;28;20027;-76
2023/10/15 00:31:13;;;;;;;0.00;0.00;;;;;;;5.35;91.61;101147.09;4914405;28;20542;-77
2023/10/15 00:33:48;;;;;;;0.00;0.00;;;;;;;5.34;92.09;101140.00;4926716;28;20034;-74
2023/10/15 00:36:14;;;;;;;0.00;0.00;;;;;;;5.33;92.30;101129.38;4941997;28;20023;-75
2023/10/15 00:38:44;;;;;;;0.00;0.00;;;;;;;5.35;92.60;101138.16;4931535;29;20035;-75
2023/10/15 00:41:14;;;;;;;0.00;0.00;;;;;;;5.40;92.18;101150.03;4942262;28;20392;-76
2023/10/15 00:43:54;;;;;;;0.10;0.10;;;;;;;5.41;92.31;101148.94;4932363;29;20612;-75
2023/10/15 00:46:24;;;;;;;0.00;0.00;;;;;;;5.38;92.28;101133.09;4947141;28;20174;-74
2023/10/15 00:48:50;;;;;;;0.00;0.00;;;;;;;5.40;92.30;101147.31;4932845;29;20028;-75
2023/10/15 00:51:20;;;;;;;0.00;0.00;;;;;;;5.39;92.32;101144.81;4942968;28;20053;-75
2023/10/15 00:53:53;;;;;;;0.00;0.00;;;;;;;5.41;92.23;101143.53;4905390;29;20055;-74
2023/10/15 00:56:22;;;;;;;0.00;0.00;;;;;;;5.38;92.21;101133.09;4927691;28;20023;-74
2023/10/15 01:04:00;;;;;;;0.10;0.10;;;;;;;5.41;92.65;101132.69;4935212;28;20499;-74
2023/10/15 01:06:35;;;;;;;0.03;0.03;;;;;;;5.39;92.49;101144.81;4924622;28;20058;-74
2023/10/15 01:09:08;;;;;;;0.00;0.00;;;;;;;5.35;92.56;101147.09;4935444;29;20154;-74
2023/10/15 01:11:44;;;;;;;0.00;0.00;;;;;;;5.29;92.67;101150.69;4926247;28;20026;-74
2023/10/15 01:14:10;;;;;;;0.00;0.00;;;;;;;5.27;92.90;101150.06;4942786;28;20055;-74
2023/10/15 01:16:37;;;;;;;0.00;0.00;;;;;;;5.22;92.32;101155.28;4946851;28;20106;-74
2023/10/15 01:21:43;;;;;;;0.10;0.10;;;;;;;5.20;93.46;101166.34;4941607;28;20028;-75
2023/10/15 01:24:09;;;;;;;0.00;0.00;;;;;;;5.19;93.23;101166.56;4925987;28;20031;-75
2023/10/15 01:26:38;;;;;;;0.00;0.00;;;;;;;5.17;93.54;101168.63;4908897;29;20046;-75
2023/10/15 01:29:06;;;;;;;0.00;0.00;;;;;;;5.18;93.93;101173.03;4911305;29;20023;-74
2023/10/15 01:31:40;;;;;;;0.00;0.00;;;;;;;5.20;92.92;101185.31;4940686;28;20044;-75
2023/10/15 01:34:09;;;;;;;0.00;0.00;;;;;;;5.16;93.77;101185.97;4919627;29;20028;-75
2023/10/15 01:36:38;;;;;;;0.00;0.00;;;;;;;5.19;94.04;101189.06;4928407;28;20066;-75
2023/10/15 01:39:10;;;;;;;0.00;0.00;;;;;;;5.14;93.57;101185.31;4942415;28;20688;-76
2023/10/15 01:41:42;;;;;;;0.00;0.00;;;;;;;5.12;93.71;101187.44;4938963;28;20043;-74
2023/10/15 01:44:09;;;;;;;0.00;0.00;;;;;;;5.11;93.47;101193.88;4925712;28;20153;-75
2023/10/15 01:46:48;;;;;;;0.00;0.00;;;;;;;5.05;93.90;101188.28;4937511;29;20149;-75
2023/10/15 01:49:31;;;;;;;0.00;0.00;;;;;;;5.03;93.71;101176.78;4945812;28;20423;-75
2023/10/15 01:52:28;;;;;;;0.08;0.08;;;;;;;4.99;93.93;101180.97;4929086;28;20042;-75
2023/10/15 01:54:53;;;;;;;0.00;0.00;;;;;;;4.97;94.84;101188.47;4933137;28;20051;-75
2023/10/15 01:57:22;;;;;;;0.00;0.00;;;;;;;4.97;94.13;101191.19;4900755;28;20058;-75
2023/10/15 01:59:47;;;;;;;0.00;0.00;;;;;;;4.95;95.02;101185.16;4927913;29;20467;-76
2023/10/15 02:02:17;;;;;;;0.03;0.03;;;;;;;4.93;94.72;101181.81;4919840;28;20073;-75
2023/10/15 02:04:47;;;;;;;0.00;0.00;;;;;;;4.92;94.71;101182.03;4930951;29;20103;-74
2023/10/15 02:07:22;;;;;;;0.00;0.00;;;;;;;4.92;95.32;101185.59;4927598;28;20030;-74
2023/10/15 02:09:47;;;;;;;0.00;0.00;;;;;;;4.98;95.50;101192.88;4941987;28;20019;-76
2023/10/15 02:12:14;;;;;;;0.00;0.00;;;;;;;4.92;95.15;101182.88;4943921;28;20062;-75
2023/10/15 02:14:44;;;;;;;0.00;0.00;;;;;;;4.92;95.69;101182.03;4938044;28;20033;-75
2023/10/15 02:17:13;;;;;;;0.00;0.00;;;;;;;4.90;95.11;101190.38;4946631;28;20102;-76
2023/10/15 02:19:42;;;;;;;0.00;0.00;;;;;;;4.83;95.01;101182.25;4922121;28;20059;-76
2023/10/15 02:22:14;;;;;;;0.00;0.00;;;;;;;4.76;95.37;101188.69;4929425;29;20031;-75
2023/10/15 02:24:47;;;;;;;0.00;0.00;;;;;;;4.71;95.31;101187.44;4937366;28;20038;-74
2023/10/15 02:27:22;;;;;;;0.00;0.00;;;;;;;4.73;96.07;101195.38;4945051;28;21109;-74
2023/10/15 02:29:50;;;;;;;0.00;0.00;;;;;;;4.68;95.97;101187.88;4928764;29;20024;-74
2023/10/15 02:34:52;;;;;;;0.00;0.00;;;;;;;4.68;95.66;101198.69;4938824;28;20031;-75
2023/10/15 02:37:19;;;;;;;0.10;0.10;;;;;;;4.68;95.91;101190.56;4923910;29;20340;-74
2023/10/15 02:39:51;;;;;;;0.00;0.00;;;;;;;4.68;95.47;101187.88;4933911;28;20027;-74
2023/10/15 02:42:20;;;;;;;0.10;0.10;;;;;;;4.63;96.00;101187.66;4923344;28;20077;-75
2023/10/15 02:44:50;;;;;;;0.00;0.00;;;;;;;4.64;96.11;101196.63;4924735;28;20089;-74
2023/10/15 02:47:19;;;;;;;0.10;0.10;;;;;;;4.59;95.93;101193.72;4939151;28;20027;-74
2023/10/15 02:49:53;;;;;;;0.00;0.00;;;;;;;4.59;96.10;101194.53;4944357;28;20091;-75
2023/10/15 02:52:19;;;;;;;0.00;0.00;;;;;;;4.59;95.43;101199.97;4936618;28;20074;-74
2023/10/15 02:54:46;;;;;;;0.00;0.00;;;;;;;4.57;96.10;101204.75;4924655;28;20055;-75
2023/10/15 02:57:16;;;;;;;0.00;0.00;;;;;;;4.49;95.77;101191.41;4921211;28;20054;-74
2023/10/15 02:59:52;;;;;;;0.10;0.10;;;;;;;4.49;95.35;101194.13;4937129;28;20023;-75
2023/10/15 03:02:19;;;;;;;0.00;0.00;;;;;;;4.45;95.63;101198.28;4926250;28;20381;-75
2023/10/15 03:04:49;;;;;;;0.00;0.00;;;;;;;4.40;96.05;101209.72;4940176;28;20123;-75
2023/10/15 03:07:34;;;;;;;0.00;0.00;;;;;;;4.36;96.21;101203.88;4924575;28;20027;-75
2023/10/15 03:09:59;;;;;;;0.00;0.00;;;;;;;4.30;96.29;101196.56;4943642;28;20046;-74
2023/10/15 03:12:25;;;;;;;0.10;0.10;;;;;;;4.28;96.07;101209.50;4913918;29;20498;-74
2023/10/15 03:14:54;;;;;;;0.10;0.10;;;;;;;4.26;95.90;101205.31;4923161;28;20032;-75
2023/10/15 03:17:29;;;;;;;0.00;0.00;;;;;;;4.21;95.95;101197.00;4927045;28;20109;-74
2023/10/15 03:20:10;;;;;;;0.00;0.00;;;;;;;4.18;96.57;101200.94;4931488;29;20122;-75
2023/10/15 03:22:37;;;;;;;0.00;0.00;;;;;;;4.12;96.58;101193.66;4940161;28;20777;-74
2023/10/15 03:25:04;;;;;;;0.00;0.00;;;;;;;4.09;97.02;101196.72;4942154;28;20062;-74
2023/10/15 03:27:30;;;;;;;0.00;0.00;;;;;;;4.02;96.98;101202.13;4923198;28;20027;-74
2023/10/15 03:29:58;;;;;;;0.00;0.00;;;;;;;3.96;97.19;101209.19;4934903;29;20497;-74
2023/10/15 03:32:37;;;;;;;0.10;0.10;;;;;;;3.88;96.95;101193.13;4916555;28;20062;-77
2023/10/15 03:35:07;;;;;;;0.00;0.00;;;;;;;3.91;97.28;101206.25;4932331;29;20082;-75
2023/10/15 03:37:38;;;;;;;0.00;0.00;;;;;;;3.90;97.54;101201.03;4941527;28;20090;-75
2023/10/15 03:40:11;;;;;;;0.00;0.00;;;;;;;3.89;97.06;101211.03;4906951;29;20034;-76
2023/10/15 03:42:40;;;;;;;0.00;0.00;;;;;;;3.84;97.33;101208.09;4926747;28;20039;-75
2023/10/15 03:45:08;;;;;;;0.00;0.00;;;;;;;3.76;97.25;101211.81;4946653;28;20059;-75
2023/10/15 03:47:39;;;;;;;0.00;0.00;;;;;;;3.73;97.50;101212.22;4941450;28;20062;-74
2023/10/15 03:50:09;;;;;;;0.00;0.00;;;;;;;3.75;98.17;101214.72;4934979;29;20451;-75
2023/10/15 03:52:35;;;;;;;0.00;0.00;;;;;;;3.72;97.86;101223.25;4939388;28;20051;-75
2023/10/15 03:55:00;;;;;;;0.00;0.00;;;;;;;3.71;98.01;101229.69;4930257;29;20050;-74
2023/10/15 03:57:28;;;;;;;0.00;0.00;;;;;;;3.66;98.20;101225.75;4923047;28;20039;-75
2023/10/15 03:59:55;;;;;;;0.00;0.00;;;;;;;3.69;98.62;101237.19;4929303;28;20039;-76
2023/10/15 04:02:54;;;;;;;0.00;0.00;;;;;;;3.65;97.98;101229.47;4936585;28;20029;-74
2023/10/15 04:05:20;;;;;;;0.00;0.00;;;;;;;3.61;98.74;101235.50;4940689;28;20394;-75
2023/10/15 04:07:48;;;;;;;0.00;0.00;;;;;;;3.56;98.76;101227.94;4943637;28;20039;-75
2023/10/15 04:10:21;;;;;;;0.00;0.00;;;;;;;3.46;99.25;101217.50;4949827;28;20015;-74
2023/10/15 04:12:47;;;;;;;0.00;0.00;;;;;;;3.43;99.14;101226.03;4927916;28;20042;-75
2023/10/15 04:15:17;;;;;;;0.00;0.00;;;;;;;3.32;99.19;101227.41;4926164;29;20114;-75
2023/10/15 04:17:51;;;;;;;0.10;0.10;;;;;;;3.35;99.66;101230.75;4915884;28;20030;-76
2023/10/15 04:20:25;;;;;;;0.10;0.10;;;;;;;3.36;100.00;101237.81;4950878;28;20554;-76
2023/10/15 04:22:51;;;;;;;0.00;0.00;;;;;;;3.36;100.00;101232.41;4925626;28;20027;-75
2023/10/15 04:25:26;;;;;;;0.00;0.00;;;;;;;3.36;99.80;101235.97;4930346;28;20055;-75
2023/10/15 04:27:53;;;;;;;0.00;0.00;;;;;;;3.31;99.84;101241.97;4928258;28;20031;-73
2023/10/15 04:30:23;;;;;;;0.00;0.00;;;;;;;3.21;99.98;101243.34;4944008;28;20062;-75
2023/10/15 04:32:49;;;;;;;0.00;0.00;;;;;;;3.15;100.00;101242.25;4949735;28;20030;-73
2023/10/15 04:35:29;;;;;;;0.00;0.00;;;;;;;3.10;100.00;101255.53;4936372;28;20027;-75
2023/10/15 04:37:57;;;;;;;0.00;0.00;;;;;;;3.02;100.00;101247.56;4950647;28;20031;-76
2023/10/15 04:40:23;;;;;;;0.00;0.00;;;;;;;3.00;100.00;101249.63;4940839;28;20110;-75
2023/10/15 04:42:50;;;;;;;0.00;0.00;;;;;;;2.97;100.00;101257.09;4920086;29;20543;-75
2023/10/15 04:48:25;;;;;;;0.10;0.10;;;;;;;2.85;100.00;101253.25;4933819;28;20051;-75
2023/10/15 04:50:51;;;;;;;0.00;0.00;;;;;;;2.84;100.00;101261.56;4919554;28;20023;-75
2023/10/15 04:55:48;;;;;;;0.00;0.00;;;;;;;2.82;100.00;101264.44;4893145;29;20031;-74
2023/10/15 04:58:14;;;;;;;0.00;0.00;;;;;;;2.77;100.00;101267.75;4908501;29;20015;-75
2023/10/15 05:00:41;;;;;;;0.00;0.00;;;;;;;2.75;100.00;101268.94;4921466;29;20027;-76
2023/10/15 05:03:06;;;;;;;0.10;0.10;;;;;;;2.78;100.00;101268.56;4928622;29;20034;-73
2023/10/15 05:05:32;;;;;;;0.00;0.00;;;;;;;2.79;100.00;101275.66;4917378;29;20119;-75
2023/10/15 05:08:00;;;;;;;0.00;0.00;;;;;;;2.75;100.00;101277.06;4908632;29;20032;-74
2023/10/15 05:10:29;;;;;;;0.00;0.00;;;;;;;2.78;100.00;101274.78;4906508;29;21982;-74
2023/10/15 05:12:55;;;;;;;0.00;0.00;;;;;;;2.85;100.00;101282.97;4902761;29;20020;-75
2023/10/15 05:15:22;;;;;;;0.08;0.08;;;;;;;2.93;100.00;101288.22;4922493;29;20063;-74
2023/10/15 05:17:48;;;;;;;0.00;0.00;;;;;;;2.90;100.00;101276.97;4901313;29;20471;-75
2023/10/15 05:20:13;;;;;;;0.00;0.00;;;;;;;2.90;100.00;101287.78;4906592;29;20036;-74
2023/10/15 05:22:44;;;;;;;0.10;0.10;;;;;;;2.90;100.00;101287.78;4901769;29;20406;-74
2023/10/15 05:25:17;;;;;;;0.00;0.00;;;;;;;2.84;100.00;101289.38;4919220;29;20058;-74
2023/10/15 05:27:45;;;;;;;0.00;0.00;;;;;;;2.83;100.00;101290.41;4918909;28;20553;-75
2023/10/15 05:30:15;;;;;;;0.00;0.00;;;;;;;2.83;100.00;101287.72;4911464;29;20016;-75
2023/10/15 05:32:43;;;;;;;0.00;0.00;;;;;;;2.78;100.00;101285.59;4920101;29;20130;-75
2023/10/15 05:35:09;;;;;;;0.00;0.00;;;;;;;2.78;100.00;101284.78;4908653;29;20024;-74
2023/10/15 05:37:39;;;;;;;0.00;0.00;;;;;;;2.75;100.00;101285.16;4924365;29;20043;-76
2023/10/15 05:40:06;;;;;;;0.10;0.10;;;;;;;2.68;100.00;101268.06;4926849;29;20028;-74
2023/10/15 05:42:32;;;;;;;0.10;0.10;;;;;;;2.74;100.00;101275.38;4915567;29;20485;-75
2023/10/15 05:44:58;;;;;;;0.00;0.00;;;;;;;2.84;100.00;101283.16;4923443;29;20122;-74
2023/10/15 05:47:23;;;;;;;0.00;0.00;;;;;;;2.89;100.00;101286.97;4910414;29;20035;-76
2023/10/15 05:49:49;;;;;;;0.10;0.10;;;;;;;2.91;100.00;101282.19;4905325;29;20043;-75
2023/10/15 05:52:15;;;;;;;0.00;0.00;;;;;;;2.93;100.00;101288.22;4909408;29;20028;-74
2023/10/15 05:54:41;;;;;;;0.00;0.00;;;;;;;2.99;100.00;101292.00;4906071;29;20028;-71
2023/10/15 05:57:06;;;;;;;0.10;0.10;;;;;;;2.93;100.00;101299.03;4878944;29;20054;-74
2023/10/15 05:59:34;;;;;;;0.10;0.10;;;;;;;2.83;100.00;101293.13;4893122;29;20040;-73
2023/10/15 06:02:00;;;;;;;0.10;0.10;;;;;;;2.76;100.00;101286.81;4913136;29;20467;-73
2023/10/15 06:04:26;;;;;;;0.00;0.00;;;;;;;2.68;100.00;101286.97;4891812;29;20092;-73
2023/10/15 06:06:52;;;;;;;0.00;0.00;;;;;;;2.68;100.00;101300.47;4888416;29;20387;-72
2023/10/15 06:09:17;;;;;;;0.00;0.00;;;;;;;2.69;100.00;101302.16;4886677;29;20024;-72
2023/10/15 06:11:42;;;;;;;0.00;0.00;;;;;;;2.67;100.00;101302.31;4913777;29;20094;-72
2023/10/15 06:14:08;;;;;;;0.00;0.00;;;;;;;2.68;100.00;101308.56;4900396;29;20643;-73
2023/10/15 06:16:35;;;;;;;0.00;0.00;;;;;;;2.63;100.00;101306.44;4889269;29;20048;-73
2023/10/15 06:19:01;;;;;;;0.08;0.08;;;;;;;2.66;100.00;101310.59;4914262;29;20037;-73
2023/10/15 06:21:26;;;;;;;0.00;0.00;;;;;;;2.66;100.00;101313.31;4903855;29;20593;-73
2023/10/15 06:23:52;;;;;;;0.10;0.10;;;;;;;2.62;100.00;101307.47;4899134;29;20490;-74
2023/10/15 06:26:18;;;;;;;0.03;0.03;;;;;;;2.63;100.00;101303.75;4886667;29;20039;-73
2023/10/15 06:28:43;;;;;;;0.00;0.00;;;;;;;2.71;100.00;101321.69;4868621;29;20695;-73
2023/10/15 06:31:09;;;;;;;0.10;0.10;;;;;;;2.66;100.00;101318.72;4896176;29;20032;-73
2023/10/15 06:33:37;;;;;;;0.00;0.00;;;;;;;2.67;100.00;101315.81;4895194;29;20039;-72
2023/10/15 06:36:06;;;;;;;0.10;0.10;;;;;;;2.72;100.00;101320.66;4902343;29;20039;-73
2023/10/15 06:38:31;;;;;;;0.10;0.10;;;;;;;2.76;100.00;101322.78;4884696;29;20044;-74
2023/10/15 06:40:57;;;;;;;0.00;0.00;;;;;;;2.78;100.00;101317.19;4917285;29;20439;-73
2023/10/15 06:43:29;;;;;;;0.10;0.10;;;;;;;2.85;100.00;101333.44;4898999;29;20031;-75
2023/10/15 06:45:54;;;;;;;0.00;0.00;;;;;;;2.80;100.00;101320.53;4873293;29;20036;-73
2023/10/15 06:48:22;;;;;;;0.00;0.00;;;;;;;2.95;100.00;101334.81;4909987;29;21384;-72
2023/10/15 06:50:48;;;;;;;0.00;0.00;;;;;;;3.01;100.00;101332.34;4883367;29;20123;-74
2023/10/15 06:53:14;;;;;;;0.10;0.10;;;;;;;3.03;100.00;101338.41;4905051;29;20059;-74
2023/10/15 06:55:45;;;;;;;0.00;0.00;;;;;;;3.10;100.00;101342.03;4920131;29;20036;-74
2023/10/15 06:58:13;;;;;;;0.00;0.00;;;;;;;3.16;100.00;101340.41;4942176;28;20035;-73
2023/10/15 07:00:39;;;;;;;0.00;0.00;;;;;;;3.28;100.00;101339.66;4905458;29;20047;-74
2023/10/15 07:03:04;;;;;;;0.10;0.10;;;;;;;3.34;100.00;101329.94;4926291;29;20019;-74
2023/10/15 07:05:33;;;;;;;0.05;0.05;;;;;;;3.55;100.00;101339.03;4912593;29;20035;-74
2023/10/15 07:08:05;;;;;;;0.00;0.00;;;;;;;3.61;100.00;101328.28;4909101;29;20378;-74
2023/10/15 07:10:36;;;;;;;0.10;0.10;;;;;;;3.74;100.00;101353.72;4909754;29;20487;-73
2023/10/15 07:13:07;;;;;;;0.00;0.00;;;;;;;3.74;100.00;101341.06;4940850;28;20031;-74
2023/10/15 07:15:38;;;;;;;0.00;0.00;;;;;;;3.99;100.00;101351.41;4925719;28;20046;-73
2023/10/15 07:18:04;;;;;;;0.00;0.00;;;;;;;4.54;100.00;101365.81;4906887;29;20028;-75
2023/10/15 07:20:30;;;;;;;0.00;0.00;;;;;;;5.27;100.00;101345.34;4924715;29;20036;-74
2023/10/15 07:23:07;;;;;;;;;;;;;;;;;;;;;
2023/10/15 07:25:36;;;;;;;0.00;0.00;;;;;;;8.10;90.20;101371.66;4932668;29;20028;-74
2023/10/15 07:28:02;;;;;;;0.00;0.00;;;;;;;9.41;82.85;101353.97;4933658;29;20031;-73
2023/10/15 07:30:30;;;;;;;0.00;0.00;;;;;;;10.84;76.04;101366.38;4934368;29;20052;-74
2023/10/15 07:32:59;;;;;;;0.00;0.00;;;;;;;11.97;69.78;101373.78;4912984;29;20059;-74
2023/10/15 07:35:50;;;;;;;0.00;0.00;;;;;;;13.27;64.03;101390.63;4932516;29;20448;-75
2023/10/15 07:38:27;;;;;;;0.10;0.10;;;;;;;13.96;61.17;101376.09;4920350;29;20147;-75
2023/10/15 07:41:30;;;;;;;0.00;0.00;;;;;;;14.61;57.75;101353.00;4929073;29;20027;-73
2023/10/15 07:44:21;;;;;;;;;;;;;;;;;;;;;
2023/10/15 07:46:54;;;;;;;0.00;0.00;;;;;;;11.71;66.25;101367.03;4928817;29;20023;-75
2023/10/15 07:49:20;;;;;;;0.00;0.00;;;;;;;12.79;65.97;101362.16;4928948;29;20023;-75
2023/10/15 07:51:51;;;;;;;0.00;0.00;;;;;;;14.53;60.81;101384.63;4924570;29;21584;-75
2023/10/15 07:54:16;;;;;;;0.00;0.00;;;;;;;16.06;54.43;101398.84;4927434;29;20052;-73
2023/10/15 07:56:43;;;;;;;0.00;0.00;;;;;;;17.21;50.81;101390.63;4914523;29;20067;-73
2023/10/15 07:59:08;;;;;;;0.00;0.00;;;;;;;17.96;47.91;101396.94;4928580;29;20368;-73
2023/10/15 08:01:36;;;;;;;0.00;0.00;;;;;;;18.95;45.69;101402.97;4909179;29;20063;-74
2023/10/15 08:04:03;;;;;;;0.00;0.00;;;;;;;19.83;43.32;101394.09;4939808;28;20031;-73
2023/10/15 08:06:28;;;;;;;0.00;0.00;;;;;;;20.55;41.29;101396.28;4921329;29;20036;-73
2023/10/15 08:08:55;;;;;;;0.00;0.00;;;;;;;21.30;40.03;101418.28;4925217;29;20117;-73
2023/10/15 08:11:20;;;;;;;0.00;0.00;;;;;;;22.19;38.72;101403.78;4936682;29;20810;-74
2023/10/15 08:13:45;;;;;;;0.00;0.00;;;;;;;22.64;37.01;101409.22;4931798;29;20039;-74
2023/10/15 08:16:11;;;;;;;0.00;0.00;;;;;;;23.15;36.44;101398.47;4913611;29;20115;-73
2023/10/15 08:18:37;;;;;;;0.00;0.00;;;;;;;23.50;35.58;101402.06;4908470;29;20127;-74
2023/10/15 08:21:02;;;;;;;0.00;0.00;;;;;;;23.95;34.55;101400.03;4901500;29;20051;-73
2023/10/15 08:23:28;;;;;;;0.00;0.00;;;;;;;24.30;34.23;101406.28;4904690;29;20039;-75
2023/10/15 08:25:53;;;;;;;0.00;0.00;;;;;;;25.00;34.21;101407.84;4918205;29;20460;-74
2023/10/15 08:28:20;;;;;;;0.00;0.00;;;;;;;25.50;32.44;101404.16;4929995;29;20040;-74
2023/10/15 08:30:45;;;;;;;0.00;0.00;;;;;;;26.16;31.78;101405.28;4907766;29;20059;-74
2023/10/15 08:33:12;;;;;;;0.00;0.00;;;;;;;26.76;31.41;101404.81;4923588;29;20099;-74
2023/10/15 08:35:38;;;;;;;0.00;0.00;;;;;;;27.15;28.97;101422.03;4902183;29;20110;-75
2023/10/15 08:38:07;;;;;;;0.00;0.00;;;;;;;27.32;29.50;101404.91;4926071;29;20378;-75
2023/10/15 08:40:37;;;;;;;0.00;0.00;;;;;;;28.10;28.35;101415.88;4906297;29;20040;-75
2023/10/15 08:43:20;;;;;;;0.00;0.00;;;;;;;28.48;27.46;101419.22;4922049;28;20031;-75
2023/10/15 08:45:53;;;;;;;0.00;0.00;;;;;;;28.86;27.75;101407.25;4924534;29;20479;-77
2023/10/15 08:48:29;;;;;;;;;;;;;;;;;;;;;
2023/10/15 08:50:59;;;;;;;0.00;0.00;;;;;;;29.51;25.68;101399.34;4920371;29;20034;-78
2023/10/15 08:53:50;;;;;;;0.00;0.00;;;;;;;30.40;25.22;101408.63;4941568;28;20908;-76
2023/10/15 08:56:25;;;;;;;0.00;0.00;;;;;;;31.51;24.10;101414.16;4928436;29;20513;-75
2023/10/15 08:58:52;;;;;;;0.00;0.00;;;;;;;30.91;23.81;101426.28;4922652;29;20047;-75
2023/10/15 09:01:21;;;;;;;0.00;0.00;;;;;;;30.93;23.39;101412.63;4930611;29;20024;-75
2023/10/15 09:03:47;;;;;;;0.00;0.00;;;;;;;31.53;23.44;101427.91;4925984;29;20027;-75
2023/10/15 09:06:14;;;;;;;0.00;0.00;;;;;;;32.24;22.04;101435.53;4929678;29;20022;-73
2023/10/15 09:08:43;;;;;;;0.00;0.00;;;;;;;32.47;21.35;101432.47;4919300;29;20039;-77
2023/10/15 09:11:10;;;;;;;0.00;0.00;;;;;;;33.33;21.25;101440.69;4912712;29;20050;-76
2023/10/15 09:13:36;;;;;;;0.00;0.00;;;;;;;33.75;20.83;101428.69;4916392;29;20039;-76
2023/10/15 09:16:07;;;;;;;0.00;0.00;;;;;;;33.99;20.66;101434.00;4907836;29;21117;-76
2023/10/15 09:18:36;;;;;;;0.00;0.00;;;;;;;34.36;20.31;101438.47;4926662;29;20075;-78
2023/10/15 09:21:06;;;;;;;0.00;0.00;;;;;;;35.09;19.61;101439.97;4920481;29;20020;-75
2023/10/15 09:23:35;;;;;;;0.00;0.00;;;;;;;35.52;18.52;101434.09;4933055;29;20038;-76
2023/10/15 09:26:09;;;;;;;0.00;0.00;;;;;;;36.12;17.97;101422.75;4930819;29;20360;-76
2023/10/15 09:28:36;;;;;;;0.00;0.00;;;;;;;37.03;17.74;101449.97;4920845;29;20020;-75
2023/10/15 09:31:06;;;;;;;0.00;0.00;;;;;;;37.65;17.53;101449.97;4918570;29;20028;-75
2023/10/15 09:33:33;;;;;;;0.00;0.00;;;;;;;38.55;17.13;101439.16;4935075;28;20363;-76
2023/10/15 09:36:00;;;;;;;0.00;0.00;;;;;;;39.31;16.57;101435.63;4928639;29;20482;-78
2023/10/15 09:38:30;;;;;;;0.00;0.00;;;;;;;40.01;15.96;101436.50;4925920;28;20051;-75
2023/10/15 09:40:58;;;;;;;0.00;0.00;;;;;;;40.55;14.85;101415.03;4926073;29;20038;-75
2023/10/15 09:43:31;;;;;;;0.00;0.00;;;;;;;40.20;14.20;101411.06;4908156;29;20709;-77
2023/10/15 09:45:57;;;;;;;0.00;0.00;;;;;;;39.98;13.92;101417.31;4927707;29;20036;-77
2023/10/15 09:48:27;;;;;;;0.00;0.00;;;;;;;40.02;14.18;101406.63;4908946;29;20058;-78
2023/10/15 09:50:59;;;;;;;0.00;0.00;;;;;;;40.31;14.07;101420.19;4925162;29;20071;-76
2023/10/15 09:53:28;;;;;;;0.00;0.00;;;;;;;40.36;14.05;101419.63;4918439;29;20052;-77
2023/10/15 09:56:07;;;;;;;0.00;0.00;;;;;;;40.96;13.18;101404.09;4929279;29;20392;-77
2023/10/15 09:59:02;;;;;;;0.00;0.00;;;;;;;41.20;12.73;101423.88;4919364;29;20040;-78
2023/10/15 10:01:30;;;;;;;0.00;0.00;;;;;;;40.45;12.95;101396.91;4926655;29;20039;-78
2023/10/15 10:04:04;;;;;;;0.00;0.00;;;;;;;40.83;12.41;101439.25;4925014;29;20027;-77
2023/10/15 10:06:31;;;;;;;0.00;0.00;;;;;;;40.36;12.57;101421.69;4920753;28;20383;-78
2023/10/15 10:09:21;;;;;;;0.00;0.00;;;;;;;39.98;12.48;101428.78;4923210;29;20026;-78
2023/10/15 10:12:10;;;;;;;0.00;0.00;;;;;;;39.69;13.07;101428.66;4922718;29;20387;-77
2023/10/15 10:14:43;;;;;;;0.00;0.00;;;;;;;40.37;12.68;101429.84;4921113;29;20035;-77
2023/10/15 10:17:11;;;;;;;0.00;0.00;;;;;;;41.13;12.57;101411.34;4938742;29;20415;-76
2023/10/15 10:19:40;;;;;;;0.00;0.00;;;;;;;40.96;11.69;101404.91;4931200;29;20032;-76
2023/10/15 10:22:28;;;;;;;0.00;0.00;;;;;;;41.01;12.29;101406.41;4917800;29;20035;-76
2023/10/15 10:25:05;;;;;;;;;;;;;;;;;;;;;
2023/10/15 10:27:46;;;;;;;0.00;0.00;;;;;;;42.22;11.58;101423.09;4919452;29;20032;-76
2023/10/15 10:30:37;;;;;;;;;;;;;;;;;;;;;
2023/10/15 10:33:03;;;;;;;0.00;0.00;;;;;;;43.01;11.41;101410.81;4921126;29;20034;-76
2023/10/15 10:35:41;;;;;;;0.00;0.00;;;;;;;43.30;11.50;101406.81;4921976;29;20027;-76
2023/10/15 10:38:10;;;;;;;0.00;0.00;;;;;;;43.95;10.53;101412.84;4925345;29;20092;-75
2023/10/15 10:40:54;;;;;;;0.00;0.00;;;;;;;44.37;11.09;101415.19;4928962;29;20050;-76
2023/10/15 10:43:27;;;;;;;0.00;0.00;;;;;;;44.29;10.54;101414.66;4941174;28;20420;-76
2023/10/15 10:45:54;;;;;;;0.00;0.00;;;;;;;43.40;10.54;101428.59;4923484;29;20094;-77
2023/10/15 10:48:30;;;;;;;0.00;0.00;;;;;;;43.11;10.69;101414.53;4924687;29;20482;-80
2023/10/15 10:51:21;;;;;;;0.00;0.00;;;;;;;42.95;10.76;101429.91;4926752;29;20076;-75
2023/10/15 10:53:55;;;;;;;0.00;0.00;;;;;;;43.49;10.05;101428.69;4923237;29;20051;-75
2023/10/15 10:56:22;;;;;;;0.00;0.00;;;;;;;44.36;10.34;101416.44;4926436;29;20028;-76
2023/10/15 10:58:52;;;;;;;0.00;0.00;;;;;;;45.09;9.41;101411.91;4919618;29;20099;-76
2023/10/15 11:01:17;;;;;;;0.00;0.00;;;;;;;45.65;9.43;101407.53;4926181;29;20015;-76
2023/10/15 11:03:47;;;;;;;0.00;0.00;;;;;;;46.59;9.58;101420.09;4924849;29;20027;-77
2023/10/15 11:06:15;;;;;;;0.00;0.00;;;;;;;47.38;9.07;101409.94;4911647;29;20027;-75
2023/10/15 11:08:41;;;;;;;0.00;0.00;;;;;;;47.58;7.79;101408.41;4899634;29;20039;-76
2023/10/15 11:11:12;;;;;;;0.00;0.00;;;;;;;48.02;8.13;101404.53;4941478;28;20019;-77
2023/10/15 11:13:37;;;;;;;0.00;0.00;;;;;;;47.60;8.04;101408.69;4917400;29;20035;-74
2023/10/15 11:16:03;;;;;;;0.00;0.00;;;;;;;46.99;7.57;101424.50;4915860;29;20040;-74
2023/10/15 11:18:30;;;;;;;0.00;0.00;;;;;;;46.96;8.40;101428.38;4926659;29;20039;-72
2023/10/15 11:20:56;;;;;;;0.00;0.00;;;;;;;47.20;7.90;101427.53;4926574;29;20028;-74
2023/10/15 11:23:23;;;;;;;0.00;0.00;;;;;;;46.90;7.52;101432.50;4927763;29;20028;-75
2023/10/15 11:25:51;;;;;;;0.00;0.00;;;;;;;46.67;7.39;101409.75;4923740;29;20027;-75
2023/10/15 11:28:20;;;;;;;0.00;0.00;;;;;;;46.77;7.94;101412.53;4924327;29;20035;-73
2023/10/15 11:30:48;;;;;;;0.00;0.00;;;;;;;47.36;7.77;101411.75;4921897;29;20027;-75
2023/10/15 11:33:17;;;;;;;0.00;0.00;;;;;;;48.45;7.38;101429.31;4918709;28;20110;-76
2023/10/15 11:35:43;;;;;;;0.00;0.00;;;;;;;48.67;7.33;101412.16;4927915;29;20648;-76
2023/10/15 11:38:10;;;;;;;0.00;0.00;;;;;;;48.85;6.77;101410.25;4935317;28;20044;-74
2023/10/15 11:40:39;;;;;;;0.00;0.00;;;;;;;49.02;7.09;101414.09;4914686;29;20038;-74
2023/10/15 11:43:22;;;;;;;0.00;0.00;;;;;;;48.51;7.02;101389.59;4934109;28;20027;-75
2023/10/15 11:45:47;;;;;;;0.00;0.00;;;;;;;48.47;7.07;101403.53;4925727;29;20028;-75
2023/10/15 11:48:13;;;;;;;0.00;0.00;;;;;;;48.33;7.41;101384.91;4926411;29;20046;-76
2023/10/15 11:50:44;;;;;;;0.00;0.00;;;;;;;48.00;6.72;101386.88;4930178;29;20028;-75
2023/10/15 11:53:16;;;;;;;0.00;0.00;;;;;;;47.90;7.00;101391.22;4926869;29;20044;-75
2023/10/15 11:55:47;;;;;;;0.00;0.00;;;;;;;47.51;6.94;101366.16;4939599;28;20542;-75
2023/10/15 11:58:16;;;;;;;0.00;0.00;;;;;;;47.63;6.63;101363.44;4943553;28;20102;-75
2023/10/15 12:00:47;;;;;;;0.00;0.00;;;;;;;48.13;7.04;101368.31;4928027;29;20099;-75
2023/10/15 12:03:15;;;;;;;0.00;0.00;;;;;;;48.59;6.50;101376.22;4930586;29;20031;-74
2023/10/15 12:05:42;;;;;;;0.00;0.00;;;;;;;48.87;6.99;101355.41;4927169;28;20853;-74